CSU3 weather

St Hyacinthe Airport
St-Hyacinthe, Quebec, Canada

Public forecast

Using degrees Celsius for public forecast. Weather courtesy of forecast.io.

Closest aviation weather report (METAR) to St Hyacinthe Airport

Closest report is MontrĂ©al / Saint-Hubert Airport, 17.7 nm (32.8 km) WSW. Retrieved 2020/04/08 19:00 UTC (22 minutes ago):

CYHU 081900Z AUTO 35007KT 300V020 9SM FEW120 BKN140 BKN160 09/M05 A2963 RMK SLP035

Closest aviation forecast (TAF) to St Hyacinthe Airport

Closest forecast is MontrĂ©al / Saint-Hubert Airport, 17.7 nm (32.8 km) WSW. Retrieved 2020/04/08 18:42 UTC (40 minutes ago):

TAF TAF CYHU 081739Z 0818/0918 05008KT P6SM BKN120 BKN220 FM082200 05008KT P6SM OVC080 FM090400 05008KT P6SM OVC050 FM091100 05012KT P6SM OVC020 FM091300 03008KT P6SM -RA OVC025 TEMPO 0913/0915 5SM -RA BR OVC020 FM091500 03012KT 2SM -SHRA BR OVC003 RMK FCST BASED ON AUTO OBS NXT FCST BY 090000Z